Archival Weather

Prince Abdulmajeed Bin Abdula

Prince Abdulmajeed Bin Abdula, Saudi Arabia (OEAO)

Report from: Monday, May 23, 2022 4:00 PM UTC
Current time: Tuesday, August 16, 2022 6:40 AM UTC

Current weather
Weather history
Weather forecast

Temperature34.0°C (93.2°F)
Heat index31.5°C (88.6°F)
Dew point-5.0°C (23.0°F)
Winds 12 kts (6.2 m/s, 13.8 mph) North (360°)
Clouds Sky clear
Altimeter29.77 in.Hg (1008 mB)
Relative humidity8 %
Density altitude2,410 ft. (735 m)
Remarks Ceiling and visibility OK
No significant changes expected in the next two hours
Flight conditions Visual Meteorological Conditions
Raw dataOEAO 231600Z 36012KT CAVOK 34/M05 Q1008 NOSIG
An error has occurred. This application may no longer respond until reloaded. Reload 🗙